Norrie, Wisconsin
Current Conditions -  °F | °C
As of 2:55 AM on Wednesday 28 Jan 2015 (Local Time) from KAIG Reporting Station
Overcast Overcast  
Wind Chill: 12°   Ceiling: 800
Heat Index: 21°   Visibility: 10mi
Dew Point: 18°   Wind: 7mph
Humidity: 89%   Direction: 180°S
Pressure: 30.15"   Gusts: NA
Location:  44.9303°N, 89.2097°W
Report Text: KAIG 280855Z AUTO 18006KT 10SM OVC008 M06/M08 A3015 RMK AO2 T10621077
Loading
Personal Weather Stations






























Interactive Weather Map New forecast layout! Learn more

10-Day Weather Forecast

Advertisements
Track Severe Weather on mobile